createdAt,value
2023-01-04T00:01:00.157Z,68.28
2023-01-04T00:02:03.113Z,72.03
2023-01-04T00:03:06.588Z,63.85
2023-01-04T00:04:10.480Z,71.40
2023-01-04T00:05:13.279Z,65.63
2023-01-04T00:06:16.229Z,62.67
2023-01-04T00:07:18.995Z,73.03
2023-01-04T00:08:20.950Z,81.90
2023-01-04T00:09:23.861Z,62.42
2023-01-04T00:10:25.763Z,61.22
2023-01-04T00:11:28.846Z,71.25
2023-01-04T00:12:30.673Z,63.85
2023-01-04T00:13:33.985Z,66.13
2023-01-04T00:14:36.753Z,66.22
2023-01-04T00:15:38.654Z,61.08
2023-01-04T00:16:41.563Z,59.20
2023-01-04T00:17:44.046Z,61.78
2023-01-04T00:18:48.836Z,60.28
2023-01-04T00:20:11.438Z,58.45
2023-01-04T00:21:14.794Z,66.82
2023-01-04T00:22:17.633Z,53.85
2023-01-04T00:23:19.630Z,54.03
2023-01-04T00:24:22.797Z,52.08
2023-01-04T00:25:24.585Z,46.78
2023-01-04T00:26:29.330Z,48.72
2023-01-04T00:27:31.968Z,52.33
2023-01-04T00:28:34.707Z,46.63
2023-01-04T00:29:37.783Z,47.20
2023-01-04T00:30:39.589Z,43.70
2023-01-04T00:31:44.533Z,47.25
2023-01-04T00:32:46.512Z,46.17
2023-01-04T00:33:50.838Z,43.83
2023-01-04T00:34:52.619Z,42.97
2023-01-04T00:35:55.436Z,46.80
2023-01-04T00:36:57.206Z,47.05
2023-01-04T00:37:59.967Z,45.72
2023-01-04T00:39:09.741Z,44.63
2023-01-04T00:40:13.442Z,44.08
2023-01-04T00:41:34.801Z,44.08
2023-01-04T00:42:38.160Z,42.50
2023-01-04T00:43:40.031Z,42.45
2023-01-04T00:44:42.843Z,44.80
2023-01-04T00:45:45.354Z,53.83
2023-01-04T00:46:48.422Z,50.25
2023-01-04T00:47:50.180Z,48.60
2023-01-04T00:49:00.185Z,46.58
2023-01-04T00:50:03.818Z,50.97
2023-01-04T00:51:05.967Z,48.10
2023-01-04T00:52:08.813Z,49.80
2023-01-04T00:53:11.096Z,47.45
2023-01-04T00:54:16.069Z,49.22
2023-01-04T00:55:18.348Z,47.22
2023-01-04T00:56:21.340Z,49.92
2023-01-04T00:57:23.091Z,47.15
2023-01-04T00:58:26.223Z,50.60
2023-01-04T00:59:28.520Z,49.58
2023-01-04T01:00:31.275Z,51.05
2023-01-04T01:01:35.358Z,49.45
2023-01-04T01:02:38.533Z,55.03
2023-01-04T01:03:40.731Z,53.58
2023-01-04T01:04:45.082Z,46.95
2023-01-04T01:05:46.825Z,49.08
2023-01-04T01:06:50.353Z,48.28
2023-01-04T01:07:52.448Z,49.35
2023-01-04T01:08:55.340Z,49.17
2023-01-04T01:09:58.310Z,47.72
2023-01-04T01:11:03.691Z,52.67
2023-01-04T01:12:06.587Z,51.15
2023-01-04T01:13:08.403Z,47.08
2023-01-04T01:14:22.885Z,46.28
2023-01-04T01:15:24.649Z,46.10
2023-01-04T01:16:53.047Z,48.05
2023-01-04T01:17:49.868Z,47.08
2023-01-04T01:18:52.615Z,44.58
2023-01-04T01:19:55.700Z,49.58
2023-01-04T01:20:58.529Z,42.97
2023-01-04T01:22:01.288Z,45.10
2023-01-04T01:23:03.363Z,43.20
2023-01-04T01:24:07.378Z,45.88
2023-01-04T01:25:09.399Z,44.42
2023-01-04T01:26:13.931Z,43.33
2023-01-04T01:27:16.705Z,42.33
2023-01-04T01:28:18.529Z,39.25
2023-01-04T01:29:21.343Z,41.53
2023-01-04T01:30:23.241Z,41.50
2023-01-04T01:31:27.594Z,42.97
2023-01-04T01:32:29.572Z,46.47
2023-01-04T01:33:32.616Z,46.25
2023-01-04T01:34:35.594Z,45.22
2023-01-04T01:35:38.745Z,48.17
2023-01-04T01:36:41.958Z,45.65
2023-01-04T01:37:43.743Z,45.85
2023-01-04T01:38:47.504Z,47.67
2023-01-04T01:39:49.659Z,45.70
2023-01-04T01:40:52.427Z,47.90
2023-01-04T01:41:54.203Z,45.03
2023-01-04T01:42:56.987Z,43.50
2023-01-04T01:44:00.690Z,44.75
2023-01-04T01:45:10.937Z,43.13
2023-01-04T01:46:13.228Z,46.08
2023-01-04T01:47:18.326Z,44.10
2023-01-04T01:48:24.793Z,46.42
2023-01-04T01:49:45.939Z,45.28
2023-01-04T01:50:51.717Z,46.13
2023-01-04T01:51:56.692Z,46.35
2023-01-04T01:53:01.178Z,46.08
2023-01-04T01:54:07.151Z,44.65
2023-01-04T01:55:10.880Z,44.33
2023-01-04T01:56:13.905Z,46.33
2023-01-04T01:57:18.126Z,40.42
2023-01-04T01:58:24.603Z,46.05
2023-01-04T01:59:27.890Z,56.10
2023-01-04T02:00:30.802Z,54.83
2023-01-04T02:01:33.398Z,53.15
2023-01-04T02:02:37.173Z,59.38
2023-01-04T02:03:41.191Z,57.15
2023-01-04T02:04:49.419Z,50.08
2023-01-04T02:05:54.706Z,47.50
2023-01-04T02:06:58.019Z,46.00
2023-01-04T02:08:00.491Z,43.95
2023-01-04T02:09:03.905Z,41.75
2023-01-04T02:10:07.141Z,42.47
2023-01-04T02:11:10.219Z,41.80
2023-01-04T02:12:12.244Z,49.05
2023-01-04T02:13:17.002Z,49.08
2023-01-04T02:14:29.792Z,48.92
2023-01-04T02:15:38.049Z,49.78
2023-01-04T02:16:46.550Z,50.35
2023-01-04T02:17:53.719Z,48.38
2023-01-04T02:18:59.613Z,51.30
2023-01-04T02:20:17.571Z,48.13
2023-01-04T02:21:24.197Z,48.88
2023-01-04T02:22:59.633Z,44.92
2023-01-04T02:24:23.701Z,48.70
2023-01-04T02:25:49.824Z,46.33
2023-01-04T02:27:15.077Z,45.00
2023-01-04T02:28:23.044Z,45.72
2023-01-04T02:29:51.187Z,45.50
2023-01-04T02:31:16.729Z,47.35
2023-01-04T02:32:25.657Z,42.33
2023-01-04T02:33:34.832Z,43.35
2023-01-04T02:34:42.854Z,39.60
2023-01-04T02:36:06.733Z,37.88
2023-01-04T02:37:12.138Z,38.42
2023-01-04T02:38:18.366Z,42.33
2023-01-04T02:39:25.937Z,45.22
2023-01-04T02:40:34.043Z,42.80
2023-01-04T02:41:43.401Z,44.08
2023-01-04T02:43:13.815Z,41.10
2023-01-04T02:44:37.612Z,42.65
2023-01-04T02:45:48.008Z,39.33
2023-01-04T02:46:55.826Z,41.72
2023-01-04T02:48:20.531Z,43.53
2023-01-04T02:49:41.051Z,40.47
2023-01-04T02:50:51.692Z,42.53
2023-01-04T02:51:54.529Z,42.42
2023-01-04T02:52:56.315Z,45.85
2023-01-04T02:54:01.789Z,44.92
2023-01-04T02:55:06.654Z,40.72
2023-01-04T02:56:12.808Z,43.08
2023-01-04T02:57:26.836Z,39.75
2023-01-04T02:58:40.781Z,40.80
2023-01-04T02:59:56.841Z,41.72
2023-01-04T03:01:22.977Z,39.42
2023-01-04T03:02:52.774Z,39.33
2023-01-04T03:04:20.525Z,40.35
2023-01-04T03:05:59.805Z,38.80
2023-01-04T03:07:10.862Z,37.65
2023-01-04T03:08:17.506Z,37.08
2023-01-04T03:09:22.927Z,36.47
2023-01-04T03:10:31.092Z,39.58
2023-01-04T03:11:55.233Z,37.03
2023-01-04T03:13:03.576Z,39.25
2023-01-04T03:14:32.622Z,39.60
2023-01-04T03:15:34.271Z,38.33
2023-01-04T03:16:38.269Z,38.78
2023-01-04T03:17:45.880Z,41.22
2023-01-04T03:18:50.274Z,40.85
2023-01-04T03:19:55.848Z,39.83
2023-01-04T03:20:59.648Z,43.58
2023-01-04T03:22:03.997Z,41.58
2023-01-04T03:23:26.402Z,42.95
2023-01-04T03:24:47.021Z,41.40
2023-01-04T03:26:17.251Z,40.58
2023-01-04T03:27:38.413Z,41.55
2023-01-04T03:29:28.708Z,49.08
2023-01-04T03:30:49.547Z,50.00
2023-01-04T03:32:27.301Z,58.90
2023-01-04T03:33:49.338Z,51.47
2023-01-04T03:35:09.767Z,52.78
2023-01-04T03:36:20.751Z,56.88
2023-01-04T03:37:25.610Z,57.47
2023-01-04T03:38:51.238Z,61.63
2023-01-04T03:40:26.473Z,53.20
2023-01-04T03:41:49.345Z,58.95
2023-01-04T03:43:15.681Z,56.03
2023-01-04T03:44:40.095Z,62.40
2023-01-04T03:46:03.820Z,55.97
2023-01-04T03:47:27.592Z,65.30
2023-01-04T03:48:35.856Z,55.65
2023-01-04T03:49:41.139Z,53.65
2023-01-04T03:50:46.983Z,59.65
2023-01-04T03:51:49.647Z,53.53
2023-01-04T03:52:53.230Z,54.15
2023-01-04T03:53:58.644Z,57.22
2023-01-04T03:55:01.816Z,50.17
2023-01-04T03:56:05.027Z,54.90
2023-01-04T03:57:07.413Z,50.70
2023-01-04T03:58:10.617Z,50.63
2023-01-04T03:59:13.034Z,47.83
2023-01-04T04:00:18.483Z,48.65
2023-01-04T04:01:21.506Z,49.38
2023-01-04T04:02:25.412Z,50.00
2023-01-04T04:03:27.339Z,47.25
2023-01-04T04:04:48.985Z,48.80
2023-01-04T04:06:09.152Z,51.33
2023-01-04T04:07:29.556Z,51.95
2023-01-04T04:08:32.329Z,48.60
2023-01-04T04:09:34.092Z,45.83
2023-01-04T04:10:36.935Z,47.40
2023-01-04T04:11:39.718Z,44.55
2023-01-04T04:12:41.472Z,47.85
2023-01-04T04:13:44.652Z,42.05
2023-01-04T04:14:46.444Z,42.28
2023-01-04T04:15:49.352Z,39.90
2023-01-04T04:16:51.247Z,40.30
2023-01-04T04:17:54.103Z,39.25
2023-01-04T04:18:56.015Z,39.70
2023-01-04T04:20:00.199Z,37.63
2023-01-04T04:21:01.955Z,38.70
2023-01-04T04:22:04.725Z,40.85
2023-01-04T04:23:06.875Z,34.88
2023-01-04T04:24:11.279Z,37.17
2023-01-04T04:25:13.083Z,36.92
2023-01-04T04:26:15.943Z,38.70
2023-01-04T04:27:17.737Z,36.08
2023-01-04T04:28:20.489Z,39.33
2023-01-04T04:29:23.013Z,40.25
2023-01-04T04:30:25.841Z,38.25
2023-01-04T04:31:27.681Z,38.20
2023-01-04T04:32:30.721Z,39.38
2023-01-04T04:33:32.525Z,50.03
2023-01-04T04:34:36.582Z,50.35
2023-01-04T04:35:40.463Z,42.03
2023-01-04T04:36:43.212Z,37.92
2023-01-04T04:37:44.982Z,38.38
2023-01-04T04:38:47.892Z,40.88
2023-01-04T04:39:49.702Z,35.88
2023-01-04T04:41:10.273Z,39.13
2023-01-04T04:42:13.216Z,40.80
2023-01-04T04:43:15.008Z,42.08
2023-01-04T04:44:19.338Z,40.55
2023-01-04T04:45:21.667Z,44.60
2023-01-04T04:46:24.489Z,41.72
2023-01-04T04:47:26.333Z,40.75
2023-01-04T04:48:29.202Z,35.80
2023-01-04T04:49:32.589Z,37.38
2023-01-04T04:50:34.637Z,40.80
2023-01-04T04:51:39.468Z,38.10
2023-01-04T04:52:41.579Z,40.38
2023-01-04T04:53:44.399Z,38.40
2023-01-04T04:54:46.209Z,37.38
2023-01-04T04:55:51.721Z,38.30
2023-01-04T04:56:53.577Z,37.63
2023-01-04T04:57:57.205Z,39.35
2023-01-04T04:58:58.995Z,37.75
2023-01-04T05:00:01.759Z,41.25
2023-01-04T05:01:04.399Z,39.60
2023-01-04T05:02:07.418Z,35.80
2023-01-04T05:03:09.444Z,43.58
2023-01-04T05:04:16.330Z,38.40
2023-01-04T05:05:18.135Z,38.47
2023-01-04T05:06:21.466Z,41.03
2023-01-04T05:07:24.763Z,38.13
2023-01-04T05:08:27.794Z,39.35
2023-01-04T05:09:29.561Z,37.03
2023-01-04T05:10:32.463Z,43.88
2023-01-04T05:11:53.231Z,45.42
2023-01-04T05:13:00.910Z,52.22
2023-01-04T05:14:02.888Z,37.60
2023-01-04T05:15:06.355Z,40.25
2023-01-04T05:16:10.456Z,36.40
2023-01-04T05:17:12.581Z,41.97
2023-01-04T05:18:16.900Z,38.65
2023-01-04T05:19:18.709Z,40.20
2023-01-04T05:20:21.527Z,37.90
2023-01-04T05:21:23.313Z,40.67
2023-01-04T05:22:27.830Z,42.03
2023-01-04T05:23:30.074Z,39.47
2023-01-04T05:24:32.806Z,37.72
2023-01-04T05:25:34.638Z,39.53
2023-01-04T05:26:37.457Z,47.13
2023-01-04T05:27:39.321Z,42.50
2023-01-04T05:28:42.047Z,47.72
2023-01-04T05:30:02.436Z,42.35
2023-01-04T05:31:04.327Z,43.17
2023-01-04T05:32:06.320Z,40.92
2023-01-04T05:33:09.423Z,62.78
2023-01-04T05:34:11.175Z,55.72
2023-01-04T05:35:13.902Z,42.80
2023-01-04T05:36:15.774Z,48.20
2023-01-04T05:37:18.496Z,62.28
2023-01-04T05:38:23.210Z,67.25
2023-01-04T05:39:25.468Z,48.72
2023-01-04T05:40:28.565Z,53.63
2023-01-04T05:41:48.716Z,59.00
2023-01-04T05:42:51.727Z,44.40
2023-01-04T05:43:53.594Z,39.35
2023-01-04T05:44:57.626Z,44.13
2023-01-04T05:46:00.491Z,44.63
2023-01-04T05:47:02.365Z,42.72
2023-01-04T05:48:05.565Z,49.00
2023-01-04T05:49:07.438Z,43.28
2023-01-04T05:50:11.233Z,46.13
2023-01-04T05:51:13.379Z,47.13
2023-01-04T05:52:16.531Z,51.05
2023-01-04T05:53:19.391Z,49.33
2023-01-04T05:54:22.857Z,54.67
2023-01-04T05:55:26.221Z,50.70
2023-01-04T05:56:27.995Z,48.58
2023-01-04T05:57:30.788Z,51.40
2023-01-04T05:58:32.728Z,51.92
2023-01-04T05:59:41.091Z,52.42
2023-01-04T06:00:44.427Z,50.75
2023-01-04T06:01:46.425Z,52.58
2023-01-04T06:02:49.414Z,53.13
2023-01-04T06:03:51.411Z,58.15
2023-01-04T06:04:58.801Z,49.17
2023-01-04T06:06:02.360Z,50.45
2023-01-04T06:07:04.188Z,53.55
2023-01-04T06:08:07.582Z,48.90
2023-01-04T06:09:09.367Z,45.30
2023-01-04T06:10:15.305Z,42.47
2023-01-04T06:11:21.303Z,43.55
2023-01-04T06:12:27.109Z,42.40
2023-01-04T06:13:28.924Z,44.92
2023-01-04T06:14:31.763Z,45.15
2023-01-04T06:15:37.997Z,44.65
2023-01-04T06:16:45.765Z,42.22
2023-01-04T06:17:47.645Z,42.42
2023-01-04T06:18:50.608Z,41.25
2023-01-04T06:19:52.379Z,42.05
2023-01-04T06:20:55.470Z,40.58
2023-01-04T06:21:57.470Z,40.58
2023-01-04T06:23:00.235Z,39.55
2023-01-04T06:24:02.340Z,38.05
2023-01-04T06:25:05.574Z,38.95
2023-01-04T06:26:08.730Z,39.53
2023-01-04T06:27:11.721Z,38.67
2023-01-04T06:28:13.548Z,37.03
2023-01-04T06:29:16.607Z,41.20
2023-01-04T06:30:19.538Z,38.05
2023-01-04T06:31:21.383Z,38.20
2023-01-04T06:32:24.197Z,41.72
2023-01-04T06:33:26.000Z,37.00
2023-01-04T06:34:31.088Z,38.60
2023-01-04T06:35:35.919Z,36.30
2023-01-04T06:36:38.040Z,40.15
2023-01-04T06:37:40.791Z,38.22
2023-01-04T06:38:42.559Z,37.97
2023-01-04T06:39:45.379Z,40.15
2023-01-04T06:40:47.232Z,40.63
2023-01-04T06:41:51.382Z,40.15
2023-01-04T06:42:53.195Z,38.65
2023-01-04T06:43:55.959Z,38.03
2023-01-04T06:44:57.794Z,38.63
2023-01-04T06:46:01.529Z,42.25
2023-01-04T06:47:03.426Z,38.75
2023-01-04T06:48:09.241Z,44.63
2023-01-04T06:49:14.267Z,42.17
2023-01-04T06:50:17.123Z,52.53
2023-01-04T06:51:18.911Z,57.33
2023-01-04T06:52:21.763Z,53.08
2023-01-04T06:53:23.520Z,48.35
2023-01-04T06:54:27.021Z,43.35
2023-01-04T06:55:29.753Z,44.08
2023-01-04T06:56:33.516Z,46.00
2023-01-04T06:57:36.765Z,46.20
2023-01-04T06:58:39.689Z,47.83
2023-01-04T06:59:41.435Z,45.55
2023-01-04T07:00:44.224Z,46.53
2023-01-04T07:01:46.338Z,47.83
2023-01-04T07:03:14.072Z,46.67
2023-01-04T07:04:11.925Z,44.65
2023-01-04T07:05:13.929Z,42.10
2023-01-04T07:06:16.691Z,39.42
2023-01-04T07:07:18.468Z,43.15
2023-01-04T07:08:21.641Z,47.08
2023-01-04T07:09:23.453Z,43.58
2023-01-04T07:10:26.166Z,43.55
2023-01-04T07:11:27.998Z,43.72
2023-01-04T07:12:30.890Z,42.22
2023-01-04T07:13:34.092Z,41.55
2023-01-04T07:14:37.309Z,41.83
2023-01-04T07:15:40.966Z,40.97
2023-01-04T07:16:44.068Z,42.40
2023-01-04T07:17:47.532Z,41.28
2023-01-04T07:18:50.299Z,39.20
2023-01-04T07:19:52.131Z,40.83
2023-01-04T07:20:54.973Z,41.88
2023-01-04T07:21:58.597Z,42.53
2023-01-04T07:23:01.344Z,40.45
2023-01-04T07:24:04.258Z,40.40
2023-01-04T07:25:06.527Z,42.55
2023-01-04T07:26:09.310Z,40.38
2023-01-04T07:27:12.836Z,41.50
2023-01-04T07:28:35.980Z,41.42
2023-01-04T07:29:43.786Z,36.55
2023-01-04T07:30:45.725Z,38.92
2023-01-04T07:31:50.879Z,39.33
2023-01-04T07:32:54.575Z,39.63
2023-01-04T07:33:57.784Z,36.33
2023-01-04T07:35:00.599Z,40.50
2023-01-04T07:36:06.356Z,36.40
2023-01-04T07:37:10.192Z,38.88
2023-01-04T07:38:11.975Z,39.35
2023-01-04T07:39:15.053Z,41.90
2023-01-04T07:40:18.268Z,41.20
2023-01-04T07:41:20.112Z,46.00
2023-01-04T07:42:22.889Z,47.72
2023-01-04T07:43:28.306Z,42.97
2023-01-04T07:44:31.549Z,47.53
2023-01-04T07:45:36.035Z,45.08
2023-01-04T07:46:39.829Z,48.13
2023-01-04T07:47:41.663Z,48.45
2023-01-04T07:48:44.495Z,55.05
2023-01-04T07:49:48.954Z,50.60
2023-01-04T07:50:51.742Z,49.95
2023-01-04T07:51:54.559Z,48.10
2023-01-04T07:52:57.175Z,49.53
2023-01-04T07:54:00.114Z,51.72
2023-01-04T07:55:02.019Z,50.58
2023-01-04T07:56:04.996Z,49.42
2023-01-04T07:57:07.807Z,51.30
2023-01-04T07:58:09.611Z,52.80
2023-01-04T07:59:13.878Z,52.75
2023-01-04T08:00:17.334Z,53.70
2023-01-04T08:01:20.636Z,56.55
2023-01-04T08:02:23.626Z,52.22
2023-01-04T08:03:26.404Z,54.70
2023-01-04T08:04:34.676Z,59.53
2023-01-04T08:05:38.199Z,51.42
2023-01-04T08:06:42.170Z,52.30
2023-01-04T08:07:43.996Z,50.42
2023-01-04T08:08:46.982Z,49.00
2023-01-04T08:09:49.776Z,49.47
2023-01-04T08:10:51.624Z,53.00
2023-01-04T08:11:54.571Z,52.67
2023-01-04T08:12:58.354Z,51.92
2023-01-04T08:14:01.365Z,54.40
2023-01-04T08:15:03.472Z,57.88
2023-01-04T08:16:07.058Z,55.90
2023-01-04T08:17:11.292Z,60.20
2023-01-04T08:18:13.513Z,63.70
2023-01-04T08:19:17.640Z,67.93
2023-01-04T08:20:20.689Z,82.13
2023-01-04T08:21:24.157Z,81.93
2023-01-04T08:22:26.009Z,81.50
2023-01-04T08:23:28.926Z,78.00
2023-01-04T08:24:31.899Z,80.30
2023-01-04T08:25:33.687Z,77.90
2023-01-04T08:26:36.500Z,74.70
2023-01-04T08:27:38.529Z,78.22
2023-01-04T08:28:41.541Z,81.88
2023-01-04T08:29:44.271Z,76.93
2023-01-04T08:30:46.158Z,78.93
2023-01-04T08:31:49.080Z,80.38
2023-01-04T08:32:53.569Z,75.20
2023-01-04T08:33:57.023Z,79.35
2023-01-04T08:34:58.775Z,76.47
2023-01-04T08:36:09.144Z,78.85
2023-01-04T08:37:12.223Z,77.38
2023-01-04T08:38:57.672Z,76.32
2023-01-04T08:39:36.739Z,78.45
2023-01-04T08:40:58.698Z,77.68
2023-01-04T08:42:14.482Z,71.95
2023-01-04T08:43:23.826Z,66.13
2023-01-04T08:44:25.839Z,62.15
2023-01-04T08:45:29.465Z,70.80
2023-01-04T08:46:31.343Z,69.75
2023-01-04T08:47:34.445Z,64.82
2023-01-04T08:48:38.601Z,68.43
2023-01-04T08:49:41.782Z,68.60
2023-01-04T08:50:43.544Z,68.90
2023-01-04T08:51:46.685Z,75.75
2023-01-04T08:52:48.673Z,67.03
2023-01-04T08:53:51.469Z,67.93
2023-01-04T08:54:54.379Z,81.50
2023-01-04T08:55:58.690Z,79.55
2023-01-04T08:57:00.522Z,82.45
2023-01-04T08:58:03.307Z,70.50
2023-01-04T08:59:07.268Z,74.38
2023-01-04T09:00:11.308Z,79.25
2023-01-04T09:01:14.131Z,78.45
2023-01-04T09:02:23.172Z,71.60
2023-01-04T09:03:26.143Z,71.03
2023-01-04T09:04:29.798Z,82.35
2023-01-04T09:05:33.102Z,86.72
2023-01-04T09:06:36.256Z,89.50
2023-01-04T09:07:38.111Z,89.38
2023-01-04T09:08:42.194Z,91.60
2023-01-04T09:09:44.440Z,93.47
2023-01-04T09:10:47.270Z,89.35
2023-01-04T09:11:49.075Z,92.05
2023-01-04T09:12:51.858Z,86.53
2023-01-04T09:14:06.919Z,87.60
2023-01-04T09:15:11.909Z,89.60
2023-01-04T09:16:15.699Z,83.93
2023-01-04T09:17:18.505Z,83.00
2023-01-04T09:18:31.727Z,81.18
2023-01-04T09:19:36.788Z,80.72
2023-01-04T09:20:38.672Z,73.70
2023-01-04T09:21:42.396Z,78.22
2023-01-04T09:22:45.221Z,81.18
2023-01-04T09:23:47.348Z,72.63
2023-01-04T09:24:50.192Z,72.05
2023-01-04T09:25:52.087Z,67.32
2023-01-04T09:26:54.835Z,71.82
2023-01-04T09:27:57.345Z,64.53
2023-01-04T09:29:00.112Z,67.47
2023-01-04T09:30:03.255Z,64.10
2023-01-04T09:31:06.408Z,60.38
2023-01-04T09:32:16.091Z,69.20
2023-01-04T09:33:18.534Z,60.67
2023-01-04T09:34:21.602Z,60.28
2023-01-04T09:35:24.752Z,60.97
2023-01-04T09:36:28.093Z,57.28
2023-01-04T09:37:30.300Z,54.38
2023-01-04T09:38:33.810Z,55.50
2023-01-04T09:39:36.564Z,56.75
2023-01-04T09:40:48.584Z,59.47
2023-01-04T09:41:57.083Z,59.92
2023-01-04T09:43:21.324Z,58.47
2023-01-04T09:45:03.137Z,55.72
2023-01-04T09:45:55.324Z,48.55
2023-01-04T09:47:01.873Z,44.67
2023-01-04T09:48:06.436Z,43.28
2023-01-04T09:49:17.763Z,45.92
2023-01-04T09:50:24.059Z,44.30
2023-01-04T09:51:32.217Z,40.47
2023-01-04T09:52:48.287Z,44.13
2023-01-04T09:53:55.104Z,40.38
2023-01-04T09:55:04.833Z,43.47
2023-01-04T09:56:27.933Z,41.50
2023-01-04T09:57:33.834Z,42.85
2023-01-04T09:58:38.062Z,43.72
2023-01-04T09:59:41.451Z,43.00
2023-01-04T10:00:46.872Z,39.47
2023-01-04T10:01:51.121Z,41.33
2023-01-04T10:03:00.246Z,35.50
2023-01-04T10:04:06.306Z,37.67
2023-01-04T10:05:10.035Z,34.80
2023-01-04T10:06:15.691Z,39.45
2023-01-04T10:07:25.189Z,35.35
2023-01-04T10:08:28.099Z,36.45
2023-01-04T10:09:31.524Z,37.35
2023-01-04T10:10:48.722Z,35.13
2023-01-04T10:12:03.151Z,38.58
2023-01-04T10:13:09.952Z,36.00
2023-01-04T10:14:25.183Z,34.03
2023-01-04T10:15:32.648Z,33.42
2023-01-04T10:21:33.628Z,28.10
2023-01-04T10:22:43.285Z,27.25
2023-01-04T10:23:56.103Z,24.27
2023-01-04T10:25:04.144Z,22.63
2023-01-04T10:26:12.588Z,22.63
2023-01-04T10:27:22.584Z,23.08
2023-01-04T10:28:33.726Z,21.45
2023-01-04T10:29:41.678Z,24.95
2023-01-04T10:30:50.082Z,22.33
2023-01-04T10:31:54.741Z,21.25
2023-01-04T10:33:05.601Z,21.13
2023-01-04T10:34:18.955Z,20.85
2023-01-04T10:35:23.716Z,20.38
2023-01-04T10:36:28.987Z,19.27
2023-01-04T10:37:35.037Z,20.58
2023-01-04T10:38:40.892Z,20.10
2023-01-04T10:39:45.207Z,19.27
2023-01-04T10:40:50.371Z,19.15
2023-01-04T10:41:55.834Z,20.60
2023-01-04T10:43:03.401Z,18.65
2023-01-04T10:44:10.597Z,19.17
2023-01-04T10:45:18.300Z,22.00
2023-01-04T10:46:23.678Z,17.55
2023-01-04T10:47:31.990Z,17.48
2023-01-04T10:48:39.590Z,17.05
2023-01-04T10:49:43.799Z,17.08
2023-01-04T10:50:52.200Z,18.73
2023-01-04T10:51:56.963Z,16.20
2023-01-04T10:53:03.659Z,17.58
2023-01-04T10:54:14.835Z,17.05
2023-01-04T10:55:20.229Z,16.80
2023-01-04T10:56:27.311Z,16.60
2023-01-04T10:57:35.286Z,16.55
2023-01-04T10:58:43.268Z,17.08
2023-01-04T10:59:49.091Z,16.83
2023-01-04T11:00:56.139Z,16.60
2023-01-04T11:02:02.824Z,15.27
2023-01-04T11:03:09.939Z,15.05
2023-01-04T11:04:16.808Z,15.85
2023-01-04T11:05:23.400Z,14.57
2023-01-04T11:06:27.887Z,13.93
2023-01-04T11:07:35.884Z,14.35
2023-01-04T11:08:44.571Z,13.45
2023-01-04T11:09:53.192Z,11.75
2023-01-04T11:10:58.158Z,12.43
2023-01-04T11:12:01.917Z,10.98
2023-01-04T11:13:05.003Z,11.32
2023-01-04T11:14:07.867Z,11.10
2023-01-04T11:15:11.579Z,9.27
2023-01-04T11:16:13.715Z,10.13
2023-01-04T11:17:16.530Z,8.63
2023-01-04T11:18:18.628Z,8.40
2023-01-04T11:19:21.862Z,7.47
2023-01-04T11:20:27.077Z,7.07
2023-01-04T11:21:34.634Z,7.50
2023-01-04T11:22:42.148Z,7.65
2023-01-04T11:23:44.975Z,7.15
2023-01-04T11:25:32.558Z,6.07
2023-01-04T11:26:16.496Z,7.55
2023-01-04T11:27:26.862Z,4.95
2023-01-04T11:28:32.596Z,4.60
2023-01-04T11:29:40.522Z,4.43
2023-01-04T11:30:49.806Z,6.35
2023-01-04T11:31:55.762Z,4.60
2023-01-04T11:33:02.940Z,4.60
2023-01-04T11:34:05.729Z,4.63
2023-01-04T11:35:08.319Z,4.75
2023-01-04T11:36:11.646Z,5.30
2023-01-04T11:37:29.579Z,4.68
2023-01-04T11:38:32.333Z,4.95
2023-01-04T11:39:34.396Z,5.18
2023-01-04T11:40:38.576Z,4.88
2023-01-04T11:41:41.324Z,5.20
2023-01-04T11:42:43.584Z,4.85
2023-01-04T11:43:58.419Z,4.47
2023-01-04T11:45:00.388Z,5.68
2023-01-04T11:46:05.922Z,4.72
2023-01-04T11:47:14.368Z,4.57
2023-01-04T11:48:16.151Z,5.28
2023-01-04T11:49:38.115Z,5.45
2023-01-04T11:50:42.806Z,4.63
2023-01-04T11:51:45.555Z,5.00
2023-01-04T11:52:47.653Z,4.80
2023-01-04T11:53:59.046Z,5.68
2023-01-04T11:55:18.677Z,6.28
2023-01-04T11:56:25.020Z,5.30
2023-01-04T11:57:26.852Z,6.88
2023-01-04T11:58:29.653Z,7.05
2023-01-04T11:59:32.515Z,5.95
2023-01-04T12:00:34.324Z,5.47
2023-01-04T12:01:38.782Z,5.78
2023-01-04T12:04:06.772Z,7.22
2023-01-04T12:05:24.543Z,5.55
2023-01-04T12:06:52.352Z,5.53
2023-01-04T12:07:54.273Z,5.10
2023-01-04T12:08:57.217Z,8.93
2023-01-04T12:10:01.181Z,5.90
2023-01-04T12:11:05.342Z,5.95
2023-01-04T12:12:16.026Z,6.45
2023-01-04T12:13:18.290Z,5.55
2023-01-04T12:14:23.863Z,5.63
2023-01-04T12:15:33.270Z,5.75
2023-01-04T12:16:45.141Z,5.95
2023-01-04T12:17:51.200Z,5.65
2023-01-04T12:18:53.445Z,5.78
2023-01-04T12:19:57.764Z,5.95
2023-01-04T12:21:02.055Z,5.88
2023-01-04T12:22:05.783Z,6.28
2023-01-04T12:23:08.817Z,6.20
2023-01-04T12:24:17.771Z,5.43
2023-01-04T12:25:30.160Z,6.25
2023-01-04T12:26:33.524Z,6.82
2023-01-04T12:27:37.732Z,5.88
2023-01-04T12:28:41.181Z,6.85
2023-01-04T12:29:59.169Z,7.55
2023-01-04T12:31:29.747Z,6.45
2023-01-04T12:32:46.286Z,7.00
2023-01-04T12:33:49.955Z,6.55
2023-01-04T12:34:52.818Z,6.72
2023-01-04T12:36:06.549Z,7.53
2023-01-04T12:37:10.300Z,6.60
2023-01-04T12:38:12.066Z,6.10
2023-01-04T12:39:30.083Z,6.80
2023-01-04T12:41:00.115Z,6.40
2023-01-04T12:42:22.005Z,7.65
2023-01-04T12:43:26.918Z,6.72
2023-01-04T12:45:18.603Z,6.57
2023-01-04T12:46:52.542Z,8.65
2023-01-04T12:48:13.200Z,7.07
2023-01-04T12:49:51.636Z,6.43
2023-01-04T12:51:46.903Z,6.63
2023-01-04T12:54:24.242Z,6.75
2023-01-04T12:56:00.309Z,7.20
2023-01-04T12:57:23.890Z,9.43
2023-01-04T13:01:11.063Z,7.07
2023-01-04T13:02:20.347Z,7.25
2023-01-04T13:03:36.688Z,6.43
2023-01-04T13:04:41.653Z,6.43
2023-01-04T13:05:56.566Z,6.40
2023-01-04T13:07:09.999Z,6.53
2023-01-04T13:08:14.941Z,6.65
2023-01-04T13:09:24.213Z,6.00
2023-01-04T13:10:32.904Z,7.53
2023-01-04T13:12:00.302Z,6.32
2023-01-04T13:13:10.465Z,7.85
2023-01-04T13:14:17.768Z,5.97
2023-01-04T13:15:24.242Z,6.15
2023-01-04T13:16:32.826Z,5.57
2023-01-04T13:17:40.578Z,7.13
2023-01-04T13:18:46.315Z,7.03
2023-01-04T13:19:49.737Z,6.25
2023-01-04T13:20:52.713Z,6.03
2023-01-04T13:21:55.787Z,6.38
2023-01-04T13:22:59.719Z,6.20
2023-01-04T13:24:05.405Z,8.60
2023-01-04T13:25:13.434Z,5.55
2023-01-04T13:26:37.388Z,6.45
2023-01-04T13:27:40.106Z,6.18
2023-01-04T13:28:42.118Z,6.75
2023-01-04T13:29:45.037Z,6.90
2023-01-04T13:30:47.017Z,7.25
2023-01-04T13:31:54.538Z,5.78
2023-01-04T13:33:24.927Z,4.88
2023-01-04T13:34:21.363Z,6.35
2023-01-04T13:35:24.143Z,6.32
2023-01-04T13:36:25.933Z,4.80
2023-01-04T13:37:31.120Z,5.07
2023-01-04T13:38:33.711Z,5.13
2023-01-04T13:39:37.390Z,4.18
2023-01-04T13:40:48.958Z,4.97
2023-01-04T13:41:53.474Z,5.28
2023-01-04T13:43:19.119Z,7.40
2023-01-04T13:44:44.016Z,4.10
2023-01-04T13:46:05.525Z,3.95
2023-01-04T13:47:10.653Z,4.97
2023-01-04T13:48:15.158Z,4.53
2023-01-04T13:49:17.618Z,5.80
2023-01-04T13:50:33.682Z,4.35
2023-01-04T13:51:38.243Z,5.82
2023-01-04T13:53:00.019Z,4.60
2023-01-04T13:54:13.407Z,4.03
2023-01-04T13:55:20.897Z,5.00
2023-01-04T13:56:25.530Z,4.50
2023-01-04T13:57:27.347Z,3.65
2023-01-04T13:58:32.002Z,8.05
2023-01-04T13:59:34.812Z,6.00
2023-01-04T14:00:44.558Z,4.63
2023-01-04T14:01:48.958Z,4.13
2023-01-04T14:03:09.043Z,3.53
2023-01-04T14:04:16.754Z,3.97
2023-01-04T14:05:19.099Z,5.60
2023-01-04T14:06:25.155Z,3.90
2023-01-04T14:07:28.037Z,8.00
2023-01-04T14:08:32.535Z,3.80
2023-01-04T14:09:40.209Z,3.85
2023-01-04T14:10:43.208Z,4.10
2023-01-04T14:12:09.947Z,3.88
2023-01-04T14:13:15.255Z,3.83
2023-01-04T14:14:22.726Z,4.20
2023-01-04T14:15:26.566Z,4.30
2023-01-04T14:16:28.623Z,3.83
2023-01-04T14:17:34.922Z,3.67
2023-01-04T14:18:38.086Z,3.78
2023-01-04T14:19:44.389Z,4.43
2023-01-04T14:20:47.390Z,3.83
2023-01-04T14:21:49.434Z,4.18
2023-01-04T14:22:53.451Z,3.70
2023-01-04T14:23:55.220Z,3.92
2023-01-04T14:25:15.034Z,6.45
2023-01-04T14:26:30.864Z,4.32
2023-01-04T14:27:34.052Z,4.18
2023-01-04T14:28:49.537Z,5.20
2023-01-04T14:29:51.920Z,5.57
2023-01-04T14:30:56.241Z,5.78
2023-01-04T14:31:59.054Z,5.35
2023-01-04T14:33:04.075Z,4.40
2023-01-04T14:34:11.761Z,4.00
2023-01-04T14:35:14.755Z,5.00